Aydin, Turkey
Current Conditions -  °F | °C
As of 2:50 AM on Friday 19 Dec 2014 (Local Time) from LTFE Reporting Station
Rain Showers Rain Showers  
Wind Chill: 52°   Ceiling: 9000
Heat Index: 52°   Visibility: 6mi
Dew Point: 50°   Wind: 5mph
Humidity: 94%   Direction: 110°ESE
Pressure: 30.09"   Gusts: NA
Location:  37.86°N, 27.84°E
Report Text: LTFE 182350Z 11004KT 9999 -SHRA SCT030 BKN090 11/10 Q1019 NOSIG
Loading
Personal Weather Stations






























Interactive Weather Map New forecast layout! Learn more

10-Day Weather Forecast

Advertisements
Track Severe Weather on mobile